Time;durP1;ratioP1;P1;durP2;ratioP2;P2;SDS_P1;SDS_P2;PMS_P1;PMS_P2;Temp;Humidity;BMP_temperature;BMP_pressure;BME280_temperature;BME280_humidity;BME280_pressure;Samples;Min_cycle;Max_cycle;Signal;HPM_P1;HPM_P2
2022/09/30 00:00:33;;;;;;;8.50;5.33;;;9.70;99.90;;;;;;5047625;28;20479;-50
2022/09/30 00:03:00;;;;;;;10.20;6.13;;;9.70;99.90;;;;;;5046737;28;20483;-49
2022/09/30 00:05:26;;;;;;;8.53;4.80;;;9.70;99.90;;;;;;5046364;28;20539;-46
2022/09/30 00:07:53;;;;;;;6.13;4.80;;;9.70;99.90;;;;;;5046710;28;20480;-49
2022/09/30 00:10:21;;;;;;;5.13;4.47;;;9.70;99.90;;;;;;5047040;28;20464;-47
2022/09/30 00:12:48;;;;;;;7.23;4.53;;;9.70;99.90;;;;;;5046681;28;20467;-51
2022/09/30 00:15:15;;;;;;;8.97;5.20;;;9.70;99.90;;;;;;5046556;28;20475;-50
2022/09/30 00:17:42;;;;;;;6.17;4.87;;;9.70;99.90;;;;;;5047049;28;20471;-54
2022/09/30 00:20:10;;;;;;;6.60;5.00;;;9.70;99.90;;;;;;5047194;28;20456;-50
2022/09/30 00:22:36;;;;;;;8.20;6.20;;;9.70;99.90;;;;;;5046866;28;20476;-54
2022/09/30 00:25:04;;;;;;;8.73;6.07;;;9.70;99.90;;;;;;5047240;28;20466;-50
2022/09/30 00:27:32;;;;;;;8.17;5.10;;;9.60;99.90;;;;;;5047182;28;20456;-47
2022/09/30 00:29:59;;;;;;;7.90;5.27;;;9.70;99.90;;;;;;5047418;28;20483;-49
2022/09/30 00:32:26;;;;;;;8.67;5.77;;;9.60;99.90;;;;;;5047433;28;20770;-47
2022/09/30 00:34:52;;;;;;;7.50;5.80;;;9.60;99.90;;;;;;5047270;28;20448;-48
2022/09/30 00:37:19;;;;;;;12.00;6.10;;;9.60;99.90;;;;;;5048194;28;20444;-53
2022/09/30 00:39:46;;;;;;;9.10;5.70;;;9.60;99.90;;;;;;5047821;28;20444;-48
2022/09/30 00:42:14;;;;;;;7.70;5.73;;;9.60;99.90;;;;;;5047013;28;20491;-49
2022/09/30 00:44:54;;;;;;;12.33;6.37;;;9.60;99.90;;;;;;5047449;28;20437;-47
2022/09/30 00:47:45;;;;;;;7.10;4.70;;;9.60;99.90;;;;;;5047648;28;20757;-49
2022/09/30 00:50:33;;;;;;;8.90;5.70;;;9.50;99.90;;;;;;5047187;28;20902;-48
2022/09/30 00:53:06;;;;;;;9.00;6.10;;;9.50;99.90;;;;;;5047806;28;21040;-52
2022/09/30 00:55:44;;;;;;;7.43;5.47;;;9.50;99.90;;;;;;5047362;28;20428;-49
2022/09/30 00:58:19;;;;;;;10.43;5.63;;;9.40;99.90;;;;;;5047236;28;20428;-44
2022/09/30 01:00:47;;;;;;;5.97;5.37;;;9.40;99.90;;;;;;5046200;28;20546;-48
2022/09/30 01:03:14;;;;;;;10.40;6.07;;;9.40;99.90;;;;;;5047088;28;20472;-45
2022/09/30 01:05:41;;;;;;;10.10;6.70;;;9.40;99.90;;;;;;5047500;28;20455;-52
2022/09/30 01:08:09;;;;;;;10.40;6.87;;;9.40;99.90;;;;;;5048492;28;20437;-53
2022/09/30 01:10:36;;;;;;;7.03;5.33;;;9.40;99.90;;;;;;5049375;28;20448;-47
2022/09/30 01:13:03;;;;;;;9.60;5.70;;;9.40;99.90;;;;;;5047260;28;20499;-47
2022/09/30 01:15:45;;;;;;;13.77;7.10;;;9.30;99.90;;;;;;5047041;28;20470;-50
2022/09/30 01:18:23;;;;;;;7.50;5.50;;;9.30;99.90;;;;;;5047632;28;20472;-48
2022/09/30 01:21:10;;;;;;;10.03;5.50;;;9.30;99.90;;;;;;5047534;28;20429;-50
2022/09/30 01:24:07;;;;;;;10.33;7.00;;;9.20;99.90;;;;;;5047382;28;20416;-50
2022/09/30 01:27:02;;;;;;;12.50;6.07;;;9.20;99.90;;;;;;5026622;28;20456;-47
2022/09/30 01:29:49;;;;;;;9.43;6.03;;;9.20;99.90;;;;;;5047705;28;20425;-51
2022/09/30 01:32:28;;;;;;;7.70;5.27;;;9.20;99.90;;;;;;5048410;28;20413;-47
2022/09/30 01:35:06;;;;;;;6.93;5.30;;;9.20;99.90;;;;;;5049028;28;20773;-44
2022/09/30 01:37:43;;;;;;;10.50;6.43;;;9.20;99.90;;;;;;5048367;28;20478;-44
2022/09/30 01:40:22;;;;;;;10.47;5.87;;;9.10;99.90;;;;;;5048554;28;20434;-46
2022/09/30 01:42:57;;;;;;;8.57;6.07;;;9.10;99.90;;;;;;5047245;28;20487;-46
2022/09/30 01:45:33;;;;;;;10.33;5.70;;;9.10;99.90;;;;;;5047418;28;20424;-44
2022/09/30 01:48:06;;;;;;;7.30;5.30;;;9.10;99.90;;;;;;5047064;28;20468;-47
2022/09/30 01:50:43;;;;;;;8.10;5.80;;;9.10;99.90;;;;;;5046523;28;20472;-46
2022/09/30 01:53:19;;;;;;;9.87;6.83;;;9.00;99.90;;;;;;5045672;28;20451;-48
2022/09/30 01:55:50;;;;;;;6.13;4.80;;;9.00;99.90;;;;;;5046205;28;20478;-44
2022/09/30 01:58:25;;;;;;;8.17;4.70;;;9.00;99.90;;;;;;5047008;28;20420;-46
2022/09/30 02:00:55;;;;;;;7.87;4.80;;;9.00;99.90;;;;;;5045921;28;20557;-44
2022/09/30 02:03:27;;;;;;;9.17;6.03;;;9.00;99.90;;;;;;5045464;28;20491;-47
2022/09/30 02:06:01;;;;;;;11.93;6.30;;;9.00;99.90;;;;;;5045691;28;20432;-48
2022/09/30 02:08:32;;;;;;;12.30;6.57;;;9.00;99.90;;;;;;5047476;28;20829;-48
2022/09/30 02:11:09;;;;;;;7.80;5.17;;;9.00;99.90;;;;;;5048861;28;20428;-49
2022/09/30 02:13:42;;;;;;;8.67;5.77;;;8.90;99.90;;;;;;5051578;28;20527;-52
2022/09/30 02:16:16;;;;;;;9.57;4.67;;;8.90;99.90;;;;;;5051399;28;20475;-46
2022/09/30 02:18:47;;;;;;;8.33;6.17;;;8.90;99.90;;;;;;5052008;28;20475;-44
2022/09/30 02:21:19;;;;;;;7.00;4.90;;;8.90;99.90;;;;;;5053143;28;20450;-48
2022/09/30 02:23:49;;;;;;;9.13;6.83;;;9.00;99.90;;;;;;5051609;28;20476;-47
2022/09/30 02:26:21;;;;;;;6.60;5.23;;;8.90;99.90;;;;;;5051713;28;20503;-45
2022/09/30 02:28:54;;;;;;;8.83;6.00;;;8.90;99.90;;;;;;5051301;28;20436;-52
2022/09/30 02:31:23;;;;;;;9.00;5.17;;;8.90;99.90;;;;;;5052722;28;20782;-51
2022/09/30 02:33:56;;;;;;;8.73;5.53;;;8.90;99.90;;;;;;5052394;28;20440;-54
2022/09/30 02:36:28;;;;;;;7.93;6.17;;;8.80;99.90;;;;;;5052274;28;20498;-47
2022/09/30 02:39:01;;;;;;;8.13;5.40;;;8.80;99.90;;;;;;5052057;28;20503;-52
2022/09/30 02:41:30;;;;;;;7.33;5.23;;;8.80;99.90;;;;;;5051543;28;20425;-48
2022/09/30 02:44:11;;;;;;;8.80;6.77;;;8.80;99.90;;;;;;5051869;28;20482;-45
2022/09/30 02:46:47;;;;;;;9.07;5.80;;;8.80;99.90;;;;;;5051432;28;20428;-49
2022/09/30 02:49:22;;;;;;;8.63;5.80;;;8.80;99.90;;;;;;5051410;28;20471;-51
2022/09/30 02:52:03;;;;;;;9.63;5.43;;;8.80;99.90;;;;;;5051897;28;20499;-48
2022/09/30 02:54:34;;;;;;;8.50;5.67;;;8.80;99.90;;;;;;5051765;28;20428;-45
2022/09/30 02:57:10;;;;;;;8.03;4.97;;;8.80;99.90;;;;;;5051986;28;20420;-47
2022/09/30 02:59:37;;;;;;;10.57;6.23;;;8.80;99.90;;;;;;5052435;28;20531;-46
2022/09/30 03:02:04;;;;;;;6.63;4.77;;;8.70;99.90;;;;;;5051587;28;20836;-49
2022/09/30 03:04:35;;;;;;;7.13;5.60;;;8.80;99.90;;;;;;5052169;28;20509;-47
2022/09/30 03:07:02;;;;;;;7.30;5.83;;;8.80;99.90;;;;;;5051788;28;20451;-51
2022/09/30 03:09:28;;;;;;;7.20;5.30;;;8.70;99.90;;;;;;5051467;28;20463;-50
2022/09/30 03:12:06;;;;;;;9.13;6.43;;;8.70;99.90;;;;;;5051618;28;20921;-49
2022/09/30 03:15:06;;;;;;;11.40;6.00;;;8.70;99.90;;;;;;5051744;28;20475;-51
2022/09/30 03:17:56;;;;;;;10.13;4.87;;;8.70;99.90;;;;;;5052002;28;20425;-48
2022/09/30 03:20:37;;;;;;;5.97;5.37;;;8.70;99.90;;;;;;5052160;28;20464;-50
2022/09/30 03:23:34;;;;;;;6.07;4.27;;;8.70;99.90;;;;;;5051593;28;20527;-49
2022/09/30 03:26:08;;;;;;;5.70;4.63;;;8.70;99.90;;;;;;5051327;28;20468;-49
2022/09/30 03:28:41;;;;;;;6.53;5.30;;;8.60;99.90;;;;;;5051384;28;20428;-47
2022/09/30 03:31:16;;;;;;;8.27;5.50;;;8.60;99.90;;;;;;5051654;28;20455;-45
2022/09/30 03:33:51;;;;;;;6.93;5.27;;;8.60;99.90;;;;;;5051850;28;20488;-48
2022/09/30 03:36:27;;;;;;;7.40;5.23;;;8.70;99.90;;;;;;5051945;28;20432;-46
2022/09/30 03:39:03;;;;;;;6.60;5.27;;;8.70;99.90;;;;;;5051311;28;20952;-46
2022/09/30 03:41:41;;;;;;;8.57;4.77;;;8.60;99.90;;;;;;5051496;28;20919;-50
2022/09/30 03:44:14;;;;;;;7.13;5.30;;;8.60;99.90;;;;;;5050795;28;20540;-48
2022/09/30 03:46:46;;;;;;;7.07;4.77;;;8.60;99.90;;;;;;5051469;28;20500;-48
2022/09/30 03:49:18;;;;;;;7.63;5.10;;;8.50;99.90;;;;;;5051268;28;20457;-47
2022/09/30 03:51:47;;;;;;;6.93;4.70;;;8.50;99.90;;;;;;5051419;28;20467;-52
2022/09/30 03:54:15;;;;;;;8.10;5.20;;;8.50;99.90;;;;;;5051164;28;20467;-51
2022/09/30 03:56:45;;;;;;;8.00;5.23;;;8.50;99.90;;;;;;5050995;28;20467;-46
2022/09/30 03:59:16;;;;;;;6.43;4.73;;;8.50;99.90;;;;;;5051212;28;20450;-45
2022/09/30 04:01:43;;;;;;;5.33;4.53;;;8.40;99.90;;;;;;5050664;28;20824;-52
2022/09/30 04:04:11;;;;;;;6.87;5.50;;;8.40;99.90;;;;;;5051669;28;20504;-48
2022/09/30 04:06:40;;;;;;;10.30;5.27;;;8.40;99.90;;;;;;5051441;28;20459;-50
2022/09/30 04:09:08;;;;;;;7.90;5.10;;;8.40;99.90;;;;;;5051184;28;20519;-46
2022/09/30 04:11:38;;;;;;;7.97;4.87;;;8.40;99.90;;;;;;5050172;28;20955;-52
2022/09/30 04:14:05;;;;;;;5.93;5.03;;;8.40;99.90;;;;;;5050676;28;20906;-53
2022/09/30 04:16:33;;;;;;;6.40;4.93;;;8.30;99.90;;;;;;5050201;28;20433;-52
2022/09/30 04:19:00;;;;;;;5.67;4.07;;;8.30;99.90;;;;;;5050527;28;20459;-49
2022/09/30 04:21:27;;;;;;;8.03;5.43;;;8.30;99.90;;;;;;5051387;28;20462;-53
2022/09/30 04:23:55;;;;;;;5.30;4.77;;;8.40;99.90;;;;;;5050873;28;20491;-45
2022/09/30 04:26:23;;;;;;;6.60;5.20;;;8.30;99.90;;;;;;5050922;28;20494;-50
2022/09/30 04:28:51;;;;;;;10.23;5.10;;;8.30;99.90;;;;;;5050459;28;20447;-48
2022/09/30 04:31:18;;;;;;;6.23;4.53;;;8.30;99.90;;;;;;5051343;28;20463;-50
2022/09/30 04:33:45;;;;;;;8.83;5.17;;;8.30;99.90;;;;;;5050445;28;20447;-47
2022/09/30 04:36:12;;;;;;;6.07;4.67;;;8.30;99.90;;;;;;5050517;28;20454;-49
2022/09/30 04:38:39;;;;;;;8.40;5.47;;;8.30;99.90;;;;;;5051983;28;20487;-47
2022/09/30 04:41:06;;;;;;;6.10;4.47;;;8.30;99.90;;;;;;5051651;28;20448;-43
2022/09/30 04:43:34;;;;;;;8.97;5.33;;;8.20;99.90;;;;;;5051213;28;20483;-46
2022/09/30 04:46:01;;;;;;;8.00;5.13;;;8.20;99.90;;;;;;5051994;28;20943;-53
2022/09/30 04:48:30;;;;;;;7.00;5.00;;;8.20;99.90;;;;;;5051089;28;20444;-51
2022/09/30 04:50:58;;;;;;;8.17;4.77;;;8.20;99.90;;;;;;5050329;28;20482;-48
2022/09/30 04:53:25;;;;;;;8.80;4.73;;;8.20;99.90;;;;;;5050922;28;20530;-52
2022/09/30 04:55:58;;;;;;;10.60;5.80;;;8.20;99.90;;;;;;5051000;28;20480;-44
2022/09/30 04:58:25;;;;;;;8.30;5.80;;;8.20;99.90;;;;;;5050899;28;20425;-47
2022/09/30 05:01:00;;;;;;;9.17;5.73;;;8.30;99.90;;;;;;5050767;28;20448;-46
2022/09/30 05:03:27;;;;;;;7.00;5.30;;;8.30;99.90;;;;;;5050910;28;20487;-47
2022/09/30 05:05:53;;;;;;;5.97;4.63;;;8.20;99.90;;;;;;5050389;28;20448;-49
2022/09/30 05:08:21;;;;;;;7.90;5.40;;;8.20;99.90;;;;;;5048776;28;20519;-49
2022/09/30 05:10:56;;;;;;;5.17;4.53;;;8.30;99.90;;;;;;5046937;28;20456;-44
2022/09/30 05:13:23;;;;;;;9.70;5.80;;;8.20;99.90;;;;;;5047031;28;20496;-45
2022/09/30 05:15:50;;;;;;;11.03;5.33;;;8.20;99.90;;;;;;5047627;28;20527;-49
2022/09/30 05:18:19;;;;;;;5.17;4.30;;;8.30;99.90;;;;;;5047138;28;20443;-46
2022/09/30 05:20:48;;;;;;;7.47;5.10;;;8.30;99.90;;;;;;5045733;28;20492;-44
2022/09/30 05:23:15;;;;;;;6.77;4.37;;;8.30;99.90;;;;;;5047273;28;20559;-50
2022/09/30 05:25:42;;;;;;;8.47;5.60;;;8.30;99.90;;;;;;5048458;28;20444;-49
2022/09/30 05:28:09;;;;;;;7.07;6.03;;;8.30;99.90;;;;;;5049772;28;20467;-52
2022/09/30 05:30:36;;;;;;;7.80;4.50;;;8.30;99.90;;;;;;5050128;28;20439;-47
2022/09/30 05:33:03;;;;;;;6.63;4.77;;;8.70;99.90;;;;;;5048807;28;20478;-48
2022/09/30 05:35:31;;;;;;;6.90;4.73;;;9.20;99.90;;;;;;5048503;28;20440;-50
2022/09/30 05:37:59;;;;;;;7.00;5.30;;;9.40;99.90;;;;;;5048691;28;20454;-50
2022/09/30 05:40:26;;;;;;;6.53;5.30;;;9.40;99.90;;;;;;5049543;28;20432;-47
2022/09/30 05:42:53;;;;;;;7.73;5.50;;;9.30;99.90;;;;;;5049653;28;20472;-52
2022/09/30 05:45:20;;;;;;;7.63;5.33;;;9.40;99.90;;;;;;5049572;28;20504;-46
2022/09/30 05:47:51;;;;;;;7.60;5.10;;;9.40;99.90;;;;;;5053369;28;20454;-54
2022/09/30 05:50:19;;;;;;;6.90;4.23;;;9.40;99.90;;;;;;5052770;28;20463;-54
2022/09/30 05:52:48;;;;;;;8.40;5.73;;;9.30;99.90;;;;;;5052564;28;20471;-56
2022/09/30 05:55:15;;;;;;;8.37;6.13;;;9.20;99.90;;;;;;5053056;28;20455;-60
2022/09/30 05:57:42;;;;;;;7.97;5.30;;;9.10;99.90;;;;;;5053254;28;20514;-59
2022/09/30 06:00:10;;;;;;;8.80;5.63;;;9.00;99.90;;;;;;5053191;28;20428;-60
2022/09/30 06:02:37;;;;;;;8.20;5.90;;;9.00;99.90;;;;;;5052427;28;20491;-52
2022/09/30 06:05:05;;;;;;;9.47;5.90;;;8.90;99.90;;;;;;5053004;28;20478;-64
2022/09/30 06:07:34;;;;;;;7.67;5.37;;;9.00;99.90;;;;;;5052785;28;20520;-59
2022/09/30 06:10:02;;;;;;;9.80;6.20;;;9.00;99.90;;;;;;5052821;28;20492;-58
2022/09/30 06:12:29;;;;;;;5.17;3.93;;;9.00;99.90;;;;;;5052241;28;20869;-54
2022/09/30 06:14:56;;;;;;;9.43;5.10;;;9.00;99.90;;;;;;5042635;28;20531;-59
2022/09/30 06:17:23;;;;;;;6.60;4.60;;;9.10;99.90;;;;;;5041566;28;20451;-60
2022/09/30 06:19:50;;;;;;;10.90;6.67;;;9.10;99.90;;;;;;5045325;28;20460;-60
2022/09/30 06:22:17;;;;;;;12.10;5.83;;;9.10;99.90;;;;;;5027164;28;20468;-59
2022/09/30 06:24:45;;;;;;;7.00;4.90;;;9.10;99.90;;;;;;5021509;28;20473;-53
2022/09/30 06:27:13;;;;;;;13.73;5.90;;;9.10;99.90;;;;;;5038948;28;20471;-62
2022/09/30 06:29:40;;;;;;;11.53;6.30;;;9.10;99.90;;;;;;5041211;28;20520;-59
2022/09/30 06:32:07;;;;;;;15.63;6.40;;;9.10;99.90;;;;;;5050564;28;20511;-60
2022/09/30 06:34:34;;;;;;;13.23;6.40;;;9.20;99.90;;;;;;5050859;28;20440;-60
2022/09/30 06:37:01;;;;;;;12.70;6.17;;;9.20;99.90;;;;;;5052637;28;20507;-58
2022/09/30 06:39:28;;;;;;;11.50;6.27;;;9.30;99.90;;;;;;5050436;28;20979;-58
2022/09/30 06:41:55;;;;;;;11.10;7.10;;;9.30;99.90;;;;;;5047693;28;20470;-52
2022/09/30 06:44:23;;;;;;;15.60;8.67;;;9.30;99.90;;;;;;5039386;28;20476;-54
2022/09/30 06:46:53;;;;;;;10.30;6.50;;;9.30;99.90;;;;;;5045174;28;20428;-51
2022/09/30 06:49:19;;;;;;;20.90;8.37;;;9.40;99.90;;;;;;5047619;28;20448;-58
2022/09/30 06:51:46;;;;;;;14.33;8.30;;;9.40;99.90;;;;;;5049577;28;20475;-58
2022/09/30 06:54:13;;;;;;;7.97;5.93;;;9.50;99.90;;;;;;5048483;28;20464;-54
2022/09/30 06:56:40;;;;;;;14.57;7.60;;;9.60;99.90;;;;;;5055991;28;20478;-58
2022/09/30 06:59:07;;;;;;;9.30;6.40;;;9.70;99.90;;;;;;5056077;28;20881;-58
2022/09/30 07:01:36;;;;;;;12.67;6.33;;;9.80;99.90;;;;;;5057065;28;20460;-59
2022/09/30 07:04:08;;;;;;;12.57;7.27;;;9.90;99.90;;;;;;5056970;28;20466;-49
2022/09/30 07:06:35;;;;;;;17.90;6.67;;;9.90;99.90;;;;;;5056305;28;20428;-57
2022/09/30 07:09:02;;;;;;;12.90;7.30;;;10.00;99.90;;;;;;5046792;28;20512;-60
2022/09/30 07:11:29;;;;;;;10.27;6.03;;;10.10;99.90;;;;;;5040967;28;20449;-60
2022/09/30 07:13:56;;;;;;;13.00;9.30;;;10.20;99.90;;;;;;5040989;28;20543;-60
2022/09/30 07:16:24;;;;;;;17.83;6.10;;;10.30;99.90;;;;;;5033748;28;20532;-57
2022/09/30 07:18:53;;;;;;;8.50;6.67;;;10.30;99.90;;;;;;5036550;28;20917;-58
2022/09/30 07:21:20;;;;;;;6.23;5.40;;;10.40;99.90;;;;;;5036503;28;21004;-59
2022/09/30 07:23:47;;;;;;;9.43;5.50;;;10.50;99.90;;;;;;5035762;28;20494;-64
2022/09/30 07:26:15;;;;;;;8.00;5.80;;;10.50;99.90;;;;;;5036997;28;20861;-62
2022/09/30 07:28:42;;;;;;;12.60;7.00;;;10.50;99.90;;;;;;5037997;28;20483;-68
2022/09/30 07:31:11;;;;;;;8.83;6.40;;;10.60;99.90;;;;;;5038616;28;20531;-65
2022/09/30 07:33:38;;;;;;;11.23;6.57;;;10.60;99.90;;;;;;5036774;28;20451;-61
2022/09/30 07:36:07;;;;;;;8.77;6.60;;;10.70;99.90;;;;;;5036742;28;20480;-58
2022/09/30 07:38:36;;;;;;;9.63;6.23;;;10.80;99.90;;;;;;5036278;28;20897;-60
2022/09/30 07:41:06;;;;;;;12.60;6.00;;;10.90;99.90;;;;;;5036500;28;20444;-63
2022/09/30 07:43:37;;;;;;;13.03;7.23;;;11.00;99.90;;;;;;5035805;28;20533;-61
2022/09/30 07:46:05;;;;;;;9.13;6.33;;;11.10;99.90;;;;;;5036448;28;20441;-65
2022/09/30 07:48:42;;;;;;;12.13;7.33;;;11.20;99.90;;;;;;5036944;28;20495;-55
2022/09/30 07:51:11;;;;;;;8.20;6.70;;;11.20;99.90;;;;;;5036043;28;20518;-55
2022/09/30 07:53:39;;;;;;;17.90;7.40;;;11.40;99.90;;;;;;5033149;28;20463;-59
2022/09/30 07:56:06;;;;;;;9.03;6.47;;;11.50;99.90;;;;;;5035691;28;20558;-57
2022/09/30 07:58:33;;;;;;;10.00;6.80;;;11.60;99.90;;;;;;5035375;28;20440;-55
2022/09/30 08:01:00;;;;;;;10.83;7.30;;;11.70;99.90;;;;;;5035436;28;20461;-61
2022/09/30 08:03:27;;;;;;;15.50;7.50;;;11.80;99.90;;;;;;5035775;28;20480;-57
2022/09/30 08:05:54;;;;;;;12.23;7.43;;;11.90;99.90;;;;;;5035937;28;20455;-57
2022/09/30 08:08:22;;;;;;;11.03;7.63;;;11.90;99.90;;;;;;5035878;28;20455;-57
2022/09/30 08:10:49;;;;;;;8.93;7.23;;;12.00;99.90;;;;;;5035757;28;21138;-54
2022/09/30 08:13:16;;;;;;;11.60;7.40;;;12.10;99.90;;;;;;5035471;28;20956;-57
2022/09/30 08:15:43;;;;;;;9.40;6.50;;;12.10;99.90;;;;;;5035890;28;20448;-58
2022/09/30 08:18:10;;;;;;;9.17;7.70;;;12.20;99.90;;;;;;5035754;28;20468;-57
2022/09/30 08:20:36;;;;;;;12.50;7.70;;;12.30;99.90;;;;;;5035851;28;20448;-59
2022/09/30 08:23:03;;;;;;;15.30;9.30;;;12.50;99.90;;;;;;5035340;28;20905;-52
2022/09/30 08:25:31;;;;;;;9.30;6.63;;;12.80;99.90;;;;;;5035546;28;20567;-57
2022/09/30 08:27:58;;;;;;;9.47;6.70;;;13.70;99.90;;;;;;5035599;28;20460;-57
2022/09/30 08:30:25;;;;;;;11.43;6.90;;;15.10;99.90;;;;;;5035114;28;20961;-57
2022/09/30 08:32:52;;;;;;;6.93;5.80;;;16.80;99.90;;;;;;5035563;28;20451;-56
2022/09/30 08:35:18;;;;;;;10.53;7.10;;;18.40;99.90;;;;;;5035592;28;20444;-59
2022/09/30 08:37:45;;;;;;;8.50;6.70;;;20.10;99.90;;;;;;5035471;28;20424;-56
2022/09/30 08:40:19;;;;;;;7.47;5.60;;;21.70;99.90;;;;;;5035286;28;20443;-59
2022/09/30 08:43:11;;;;;;;11.13;7.07;;;23.30;99.90;;;;;;5035103;28;20456;-57
2022/09/30 08:45:50;;;;;;;8.33;7.10;;;24.50;91.80;;;;;;5032304;28;20483;-51
2022/09/30 08:48:35;;;;;;;7.83;6.23;;;25.70;83.90;;;;;;5035226;28;20471;-59
2022/09/30 08:51:15;;;;;;;9.60;7.23;;;26.50;74.60;;;;;;5035270;28;20444;-60
2022/09/30 08:53:47;;;;;;;7.10;6.23;;;27.10;71.50;;;;;;5034933;28;20546;-57
2022/09/30 08:56:21;;;;;;;14.60;7.40;;;27.50;66.10;;;;;;5034776;28;20429;-55
2022/09/30 08:58:52;;;;;;;9.53;6.40;;;27.50;63.50;;;;;;5035074;28;20472;-55
2022/09/30 09:01:25;;;;;;;7.57;6.57;;;27.50;61.90;;;;;;5035006;28;20443;-60
2022/09/30 09:03:52;;;;;;;8.47;5.90;;;27.50;60.10;;;;;;5034428;28;20464;-52
2022/09/30 09:06:26;;;;;;;6.83;6.13;;;27.30;59.70;;;;;;5034968;28;20443;-54
2022/09/30 09:09:09;;;;;;;6.20;5.60;;;27.20;59.60;;;;;;5034418;28;20452;-55
2022/09/30 09:11:58;;;;;;;7.10;6.03;;;26.90;59.50;;;;;;5034729;28;20498;-59
2022/09/30 09:14:38;;;;;;;13.97;7.10;;;26.50;60.00;;;;;;5034822;28;20533;-58
2022/09/30 09:17:19;;;;;;;6.87;5.50;;;25.20;62.70;;;;;;5034459;28;20472;-51
2022/09/30 09:19:50;;;;;;;7.10;6.40;;;23.80;66.10;;;;;;5034716;28;20532;-52
2022/09/30 09:22:17;;;;;;;8.63;5.80;;;22.70;70.40;;;;;;5034162;28;20483;-58
2022/09/30 09:24:46;;;;;;;8.47;6.60;;;21.80;73.30;;;;;;5034448;28;20480;-56
2022/09/30 09:27:19;;;;;;;7.37;5.90;;;21.00;77.00;;;;;;5034476;28;20472;-53
2022/09/30 09:29:56;;;;;;;7.03;5.47;;;20.50;82.30;;;;;;5034864;28;20440;-57
2022/09/30 09:32:26;;;;;;;6.10;5.20;;;20.80;86.20;;;;;;5034333;28;20433;-59
2022/09/30 09:34:58;;;;;;;6.77;5.20;;;21.70;83.80;;;;;;5034166;28;20498;-53
2022/09/30 09:45:41;;;;;;;6.20;4.83;;;25.60;67.00;;;;;;5342032;22;20475;-43
2022/09/30 09:48:16;;;;;;;5.40;4.90;;;25.50;65.10;;;;;;5032266;28;20449;-48
2022/09/30 09:50:54;;;;;;;7.37;6.00;;;26.40;64.10;;;;;;4979357;28;20462;-43
2022/09/30 09:53:48;;;;;;;5.93;4.60;;;26.50;62.10;;;;;;4977715;29;20471;-43
2022/09/30 09:56:20;;;;;;;6.43;5.23;;;26.80;61.10;;;;;;4977799;28;20443;-42
2022/09/30 09:59:20;;;;;;;5.47;5.00;;;27.00;59.90;;;;;;4977666;28;20479;-39
2022/09/30 10:01:53;;;;;;;6.37;5.70;;;26.70;60.00;;;;;;4919091;29;20472;-46
2022/09/30 10:04:22;;;;;;;7.10;5.27;;;26.70;59.70;;;;;;4919110;29;20482;-43
2022/09/30 10:06:54;;;;;;;7.10;5.87;;;26.90;59.60;;;;;;4957612;28;20454;-39
2022/09/30 10:09:26;;;;;;;6.63;5.70;;;27.00;59.50;;;;;;4982051;28;20435;-42
2022/09/30 10:12:31;;;;;;;5.80;5.10;;;26.90;58.70;;;;;;4976422;29;20470;-43
2022/09/30 10:15:02;;;;;;;7.67;4.70;;;26.70;58.90;;;;;;4990718;28;20463;-42
2022/09/30 10:17:31;;;;;;;4.60;4.10;;;26.40;60.60;;;;;;4996861;28;20451;-45
2022/09/30 10:20:07;;;;;;;4.90;4.50;;;26.30;61.30;;;;;;4996060;28;20483;-41
2022/09/30 10:22:35;;;;;;;6.30;5.70;;;26.60;58.80;;;;;;4996290;28;20427;-40
2022/09/30 10:25:26;;;;;;;5.10;4.60;;;26.30;58.60;;;;;;4996503;28;20512;-46
2022/09/30 10:27:57;;;;;;;5.20;3.90;;;26.50;59.10;;;;;;4977950;28;20461;-41
2022/09/30 10:30:38;;;;;;;7.30;4.73;;;26.70;59.50;;;;;;4996232;28;20465;-39
2022/09/30 10:33:16;;;;;;;5.03;4.53;;;26.60;58.30;;;;;;4997178;28;20470;-42
2022/09/30 10:36:08;;;;;;;4.90;3.70;;;26.40;58.60;;;;;;5000657;28;20462;-46
2022/09/30 10:38:37;;;;;;;5.83;4.60;;;26.50;61.60;;;;;;5000702;28;20410;-40
2022/09/30 10:41:05;;;;;;;4.80;4.40;;;26.30;59.10;;;;;;4999838;28;20467;-40
2022/09/30 10:43:39;;;;;;;9.20;4.83;;;25.80;59.80;;;;;;5000275;28;20538;-42
2022/09/30 10:46:08;;;;;;;6.03;4.63;;;25.50;60.20;;;;;;4999528;28;20492;-39
2022/09/30 10:48:38;;;;;;;4.47;4.07;;;25.00;62.80;;;;;;5014955;28;20569;-43
2022/09/30 10:51:16;;;;;;;4.60;4.20;;;24.60;64.10;;;;;;5039187;28;20461;-39
2022/09/30 10:53:44;;;;;;;6.03;4.20;;;24.40;63.10;;;;;;5039546;28;20417;-41
2022/09/30 10:56:12;;;;;;;4.17;3.67;;;24.10;61.70;;;;;;5038965;28;20520;-45
2022/09/30 10:58:48;;;;;;;3.93;3.60;;;23.60;61.90;;;;;;5039288;28;20509;-42
2022/09/30 11:01:24;;;;;;;5.47;3.90;;;23.30;62.30;;;;;;5038997;28;20472;-41
2022/09/30 11:04:05;;;;;;;5.67;3.40;;;22.90;63.00;;;;;;5039304;28;20449;-42
2022/09/30 11:06:37;;;;;;;5.20;4.23;;;22.40;64.00;;;;;;5038564;28;20505;-43
2022/09/30 11:09:09;;;;;;;5.60;4.07;;;22.30;66.50;;;;;;5038817;28;20441;-40
2022/09/30 11:11:39;;;;;;;4.00;3.03;;;22.00;65.80;;;;;;5038405;28;20949;-42
2022/09/30 11:14:21;;;;;;;3.83;3.20;;;21.70;63.80;;;;;;5038646;28;20451;-42
2022/09/30 11:16:59;;;;;;;3.60;3.30;;;21.30;64.60;;;;;;5037990;28;20469;-41
2022/09/30 11:19:31;;;;;;;4.40;3.30;;;21.00;67.00;;;;;;5038169;28;20441;-42
2022/09/30 11:22:08;;;;;;;3.93;3.53;;;20.70;69.00;;;;;;5038166;28;20508;-46
2022/09/30 11:24:40;;;;;;;4.97;3.50;;;20.40;68.50;;;;;;5038580;28;20508;-42
2022/09/30 11:27:14;;;;;;;2.90;2.70;;;20.20;70.50;;;;;;5039185;28;20473;-41
2022/09/30 11:29:56;;;;;;;3.20;2.83;;;20.00;71.30;;;;;;5038848;28;20481;-42
2022/09/30 11:32:35;;;;;;;3.23;2.80;;;20.00;72.00;;;;;;5037774;28;20469;-41
2022/09/30 11:35:13;;;;;;;6.47;2.60;;;19.90;69.40;;;;;;5038617;28;20447;-44
2022/09/30 11:37:56;;;;;;;4.43;3.37;;;19.70;70.80;;;;;;5039010;28;20459;-38
2022/09/30 11:40:31;;;;;;;4.30;3.00;;;19.70;72.50;;;;;;5039258;28;20429;-42
2022/09/30 11:43:07;;;;;;;3.67;2.27;;;19.70;73.60;;;;;;5039479;28;20453;-39
2022/09/30 11:45:49;;;;;;;5.13;2.60;;;19.60;74.40;;;;;;5039077;28;20475;-39
2022/09/30 11:48:33;;;;;;;2.87;2.27;;;19.60;71.50;;;;;;5028741;28;20521;-42
2022/09/30 11:51:11;;;;;;;3.50;2.50;;;19.50;73.20;;;;;;5019395;28;20434;-38
2022/09/30 11:53:48;;;;;;;4.27;2.83;;;19.50;74.10;;;;;;5018805;28;20958;-43
2022/09/30 11:56:26;;;;;;;3.60;2.90;;;19.50;72.40;;;;;;5018716;28;20444;-46
2022/09/30 11:58:58;;;;;;;3.27;2.60;;;19.50;74.30;;;;;;5018009;28;20450;-39
2022/09/30 12:01:31;;;;;;;3.80;2.60;;;19.30;74.90;;;;;;5018403;28;20439;-42
2022/09/30 12:04:02;;;;;;;5.03;2.53;;;19.10;74.20;;;;;;5017816;28;20457;-42
2022/09/30 12:06:34;;;;;;;2.93;2.57;;;19.10;75.20;;;;;;5017845;28;20473;-39
2022/09/30 12:09:08;;;;;;;2.50;2.30;;;18.90;75.60;;;;;;5018511;28;21024;-41
2022/09/30 12:11:41;;;;;;;2.57;2.27;;;18.90;76.20;;;;;;5018421;28;20510;-48
2022/09/30 12:14:15;;;;;;;2.97;2.50;;;18.80;75.70;;;;;;5017442;28;20477;-44
2022/09/30 12:16:50;;;;;;;3.03;2.10;;;18.90;76.80;;;;;;5017689;28;20444;-41
2022/09/30 12:19:22;;;;;;;2.37;1.80;;;18.90;79.10;;;;;;5018227;28;20473;-41
2022/09/30 12:21:55;;;;;;;4.77;3.60;;;18.90;78.70;;;;;;5017762;28;20567;-42
2022/09/30 12:24:29;;;;;;;6.53;5.63;;;18.90;78.80;;;;;;5018059;28;20493;-42
2022/09/30 12:26:56;;;;;;;5.03;2.47;;;18.90;79.60;;;;;;5017894;28;20437;-45
2022/09/30 12:32:43;;;;;;;3.07;2.20;;;19.10;80.00;;;;;;5018207;28;20394;-45
2022/09/30 12:35:31;;;;;;;5.70;2.40;;;19.10;79.00;;;;;;5015441;28;20467;-41
2022/09/30 12:38:19;;;;;;;2.43;1.97;;;19.10;80.30;;;;;;5016535;28;20450;-43
2022/09/30 12:41:02;;;;;;;2.50;2.30;;;19.20;78.40;;;;;;5015573;28;20510;-36
2022/09/30 12:44:14;;;;;;;5.20;2.80;;;19.20;78.50;;;;;;5011409;28;20456;-44
2022/09/30 12:47:19;;;;;;;2.40;2.20;;;19.20;78.30;;;;;;5017004;28;20490;-44
2022/09/30 12:49:47;;;;;;;1.97;1.73;;;19.30;78.90;;;;;;5017278;28;20470;-45
2022/09/30 12:52:19;;;;;;;1.70;1.60;;;19.40;79.90;;;;;;5017803;28;20507;-41
2022/09/30 12:54:55;;;;;;;2.90;1.97;;;19.50;78.00;;;;;;5017228;28;20466;-43
2022/09/30 12:57:27;;;;;;;1.60;1.50;;;19.50;76.40;;;;;;5017040;28;20416;-43
2022/09/30 13:00:00;;;;;;;5.00;1.90;;;19.60;75.40;;;;;;5018004;28;20468;-41
2022/09/30 13:02:34;;;;;;;4.53;2.37;;;19.60;76.00;;;;;;5017970;28;20437;-42
2022/09/30 13:05:45;;;;;;;1.70;1.60;;;19.50;76.60;;;;;;5017693;28;20493;-40
2022/09/30 13:08:46;;;;;;;2.63;1.90;;;19.10;75.80;;;;;;5017602;28;20433;-43
2022/09/30 13:11:40;;;;;;;2.23;2.03;;;18.90;77.10;;;;;;5017497;28;20498;-46
2022/09/30 13:14:33;;;;;;;3.33;2.23;;;18.90;78.10;;;;;;5017210;28;20495;-44
2022/09/30 13:17:04;;;;;;;2.10;1.67;;;18.80;79.50;;;;;;5002491;28;20450;-40
2022/09/30 13:19:36;;;;;;;3.20;2.20;;;18.70;80.10;;;;;;5017465;28;20437;-41
2022/09/30 13:22:52;;;;;;;3.00;2.13;;;18.70;80.50;;;;;;5015503;28;20515;-43
2022/09/30 13:25:21;;;;;;;7.93;2.30;;;18.50;80.50;;;;;;4999998;28;20482;-40
2022/09/30 13:27:50;;;;;;;2.43;1.90;;;18.50;82.10;;;;;;5016847;28;20449;-41
2022/09/30 13:30:40;;;;;;;3.80;2.47;;;18.70;82.30;;;;;;5016208;28;20468;-43